sensor_id;sensor_type;location;lat;lon;timestamp;pressure;altitude;pressure_sealevel;temperature
65600;BMP280;52272;-29.642;-50.764;2022-12-07T00:00:20;100643.19;;;23.60
65600;BMP280;52272;-29.642;-50.764;2022-12-07T00:02:50;100654.25;;;23.49
65600;BMP280;52272;-29.642;-50.764;2022-12-07T00:05:21;100651.34;;;23.47
65600;BMP280;52272;-29.642;-50.764;2022-12-07T00:07:50;100656.16;;;23.41
65600;BMP280;52272;-29.642;-50.764;2022-12-07T00:10:21;100657.19;;;23.38
65600;BMP280;52272;-29.642;-50.764;2022-12-07T00:12:51;100663.88;;;23.24
65600;BMP280;52272;-29.642;-50.764;2022-12-07T00:15:24;100667.09;;;23.23
65600;BMP280;52272;-29.642;-50.764;2022-12-07T00:17:54;100677.53;;;23.19
65600;BMP280;52272;-29.642;-50.764;2022-12-07T00:20:24;100680.56;;;23.15
65600;BMP280;52272;-29.642;-50.764;2022-12-07T00:22:55;100682.13;;;23.11
65600;BMP280;52272;-29.642;-50.764;2022-12-07T00:25:25;100689.97;;;23.14
65600;BMP280;52272;-29.642;-50.764;2022-12-07T00:27:56;100690.38;;;23.05
65600;BMP280;52272;-29.642;-50.764;2022-12-07T00:30:28;100692.84;;;22.90
65600;BMP280;52272;-29.642;-50.764;2022-12-07T00:32:58;100690.34;;;22.92
65600;BMP280;52272;-29.642;-50.764;2022-12-07T00:35:28;100695.13;;;22.86
65600;BMP280;52272;-29.642;-50.764;2022-12-07T00:37:57;100701.47;;;22.76
65600;BMP280;52272;-29.642;-50.764;2022-12-07T00:40:28;100694.19;;;22.84
65600;BMP280;52272;-29.642;-50.764;2022-12-07T00:42:58;100693.44;;;22.83
65600;BMP280;52272;-29.642;-50.764;2022-12-07T00:45:29;100698.66;;;22.82
65600;BMP280;52272;-29.642;-50.764;2022-12-07T00:48:01;100697.56;;;22.72
65600;BMP280;52272;-29.642;-50.764;2022-12-07T00:50:31;100699.09;;;22.67
65600;BMP280;52272;-29.642;-50.764;2022-12-07T00:53:02;100698.19;;;22.65
65600;BMP280;52272;-29.642;-50.764;2022-12-07T00:55:34;100717.19;;;22.65
65600;BMP280;52272;-29.642;-50.764;2022-12-07T00:58:04;100714.47;;;22.65
65600;BMP280;52272;-29.642;-50.764;2022-12-07T01:00:42;100722.44;;;22.63
65600;BMP280;52272;-29.642;-50.764;2022-12-07T01:03:14;100724.22;;;22.55
65600;BMP280;52272;-29.642;-50.764;2022-12-07T01:05:53;100723.66;;;22.62
65600;BMP280;52272;-29.642;-50.764;2022-12-07T01:08:26;100737.94;;;22.81
65600;BMP280;52272;-29.642;-50.764;2022-12-07T01:11:05;100733.75;;;22.80
65600;BMP280;52272;-29.642;-50.764;2022-12-07T01:13:38;100736.69;;;22.82
65600;BMP280;52272;-29.642;-50.764;2022-12-07T01:16:13;100738.91;;;22.83
65600;BMP280;52272;-29.642;-50.764;2022-12-07T01:18:46;100732.56;;;22.75
65600;BMP280;52272;-29.642;-50.764;2022-12-07T01:21:29;100742.72;;;22.75
65600;BMP280;52272;-29.642;-50.764;2022-12-07T01:24:03;100733.03;;;22.79
65600;BMP280;52272;-29.642;-50.764;2022-12-07T01:26:34;100725.97;;;22.71
65600;BMP280;52272;-29.642;-50.764;2022-12-07T01:29:05;100725.69;;;22.56
65600;BMP280;52272;-29.642;-50.764;2022-12-07T01:31:35;100707.13;;;22.60
65600;BMP280;52272;-29.642;-50.764;2022-12-07T01:34:05;100691.09;;;22.43
65600;BMP280;52272;-29.642;-50.764;2022-12-07T01:36:38;100714.34;;;22.57
65600;BMP280;52272;-29.642;-50.764;2022-12-07T01:39:10;100713.69;;;22.70
65600;BMP280;52272;-29.642;-50.764;2022-12-07T01:41:45;100717.19;;;22.65
65600;BMP280;52272;-29.642;-50.764;2022-12-07T01:44:23;100719.63;;;22.68
65600;BMP280;52272;-29.642;-50.764;2022-12-07T01:46:56;100706.91;;;22.58
65600;BMP280;52272;-29.642;-50.764;2022-12-07T01:49:48;100711.56;;;22.63
65600;BMP280;52272;-29.642;-50.764;2022-12-07T01:52:24;100712.94;;;22.51
65600;BMP280;52272;-29.642;-50.764;2022-12-07T01:55:04;100709.00;;;22.52
65600;BMP280;52272;-29.642;-50.764;2022-12-07T01:57:39;100714.00;;;22.48
65600;BMP280;52272;-29.642;-50.764;2022-12-07T02:00:11;100720.69;;;22.78
65600;BMP280;52272;-29.642;-50.764;2022-12-07T02:02:48;100718.72;;;22.79
65600;BMP280;52272;-29.642;-50.764;2022-12-07T02:05:23;100721.91;;;22.64
65600;BMP280;52272;-29.642;-50.764;2022-12-07T02:07:55;100724.97;;;22.74
65600;BMP280;52272;-29.642;-50.764;2022-12-07T02:10:29;100710.50;;;22.84
65600;BMP280;52272;-29.642;-50.764;2022-12-07T02:18:48;100721.03;;;23.19
65600;BMP280;52272;-29.642;-50.764;2022-12-07T02:24:42;100716.88;;;23.44
65600;BMP280;52272;-29.642;-50.764;2022-12-07T02:30:33;100710.75;;;23.56
65600;BMP280;52272;-29.642;-50.764;2022-12-07T02:36:29;100701.75;;;23.48
65600;BMP280;52272;-29.642;-50.764;2022-12-07T02:39:28;100696.09;;;23.59
65600;BMP280;52272;-29.642;-50.764;2022-12-07T02:42:06;100688.53;;;23.39
65600;BMP280;52272;-29.642;-50.764;2022-12-07T02:44:40;100693.38;;;23.33
65600;BMP280;52272;-29.642;-50.764;2022-12-07T02:47:14;100693.47;;;23.41
65600;BMP280;52272;-29.642;-50.764;2022-12-07T02:49:46;100677.25;;;23.35
65600;BMP280;52272;-29.642;-50.764;2022-12-07T02:52:16;100678.28;;;23.32
65600;BMP280;52272;-29.642;-50.764;2022-12-07T02:54:47;100681.53;;;23.44
65600;BMP280;52272;-29.642;-50.764;2022-12-07T02:57:42;100673.22;;;23.42
65600;BMP280;52272;-29.642;-50.764;2022-12-07T03:00:18;100669.75;;;23.41
65600;BMP280;52272;-29.642;-50.764;2022-12-07T03:02:58;100663.03;;;23.42
65600;BMP280;52272;-29.642;-50.764;2022-12-07T03:11:05;100651.13;;;23.45
65600;BMP280;52272;-29.642;-50.764;2022-12-07T03:13:58;100642.63;;;23.36
65600;BMP280;52272;-29.642;-50.764;2022-12-07T03:16:43;100642.13;;;23.37
65600;BMP280;52272;-29.642;-50.764;2022-12-07T03:19:17;100630.31;;;23.35
65600;BMP280;52272;-29.642;-50.764;2022-12-07T03:22:00;100624.88;;;23.35
65600;BMP280;52272;-29.642;-50.764;2022-12-07T03:24:54;100611.47;;;23.37
65600;BMP280;52272;-29.642;-50.764;2022-12-07T03:27:37;100617.84;;;23.65
65600;BMP280;52272;-29.642;-50.764;2022-12-07T03:30:15;100614.41;;;23.65
65600;BMP280;52272;-29.642;-50.764;2022-12-07T03:32:52;100613.19;;;23.53
65600;BMP280;52272;-29.642;-50.764;2022-12-07T03:35:43;100609.09;;;23.33
65600;BMP280;52272;-29.642;-50.764;2022-12-07T03:41:14;100597.38;;;23.12
65600;BMP280;52272;-29.642;-50.764;2022-12-07T03:43:47;100588.09;;;23.21
65600;BMP280;52272;-29.642;-50.764;2022-12-07T03:51:50;100586.03;;;23.73
65600;BMP280;52272;-29.642;-50.764;2022-12-07T03:54:36;100593.72;;;23.95
65600;BMP280;52272;-29.642;-50.764;2022-12-07T03:57:10;100580.22;;;23.56
65600;BMP280;52272;-29.642;-50.764;2022-12-07T03:59:42;100573.63;;;23.52
65600;BMP280;52272;-29.642;-50.764;2022-12-07T04:02:13;100577.19;;;23.47
65600;BMP280;52272;-29.642;-50.764;2022-12-07T04:04:44;100568.56;;;24.02
65600;BMP280;52272;-29.642;-50.764;2022-12-07T04:07:14;100574.69;;;24.15
65600;BMP280;52272;-29.642;-50.764;2022-12-07T04:09:46;100574.38;;;24.06
65600;BMP280;52272;-29.642;-50.764;2022-12-07T04:12:17;100559.88;;;24.24
65600;BMP280;52272;-29.642;-50.764;2022-12-07T04:14:47;100564.38;;;24.01
65600;BMP280;52272;-29.642;-50.764;2022-12-07T04:17:17;100555.44;;;24.34
65600;BMP280;52272;-29.642;-50.764;2022-12-07T04:19:48;100553.50;;;24.42
65600;BMP280;52272;-29.642;-50.764;2022-12-07T04:22:17;100553.75;;;24.51
65600;BMP280;52272;-29.642;-50.764;2022-12-07T04:24:50;100551.19;;;24.46
65600;BMP280;52272;-29.642;-50.764;2022-12-07T04:27:20;100548.81;;;24.42
65600;BMP280;52272;-29.642;-50.764;2022-12-07T04:29:51;100545.56;;;24.44
65600;BMP280;52272;-29.642;-50.764;2022-12-07T04:32:22;100535.47;;;24.59
65600;BMP280;52272;-29.642;-50.764;2022-12-07T04:34:53;100540.69;;;24.50
65600;BMP280;52272;-29.642;-50.764;2022-12-07T04:37:26;100540.00;;;24.57
65600;BMP280;52272;-29.642;-50.764;2022-12-07T04:39:56;100531.16;;;24.64
65600;BMP280;52272;-29.642;-50.764;2022-12-07T04:42:27;100533.34;;;24.65
65600;BMP280;52272;-29.642;-50.764;2022-12-07T04:44:57;100520.44;;;24.38
65600;BMP280;52272;-29.642;-50.764;2022-12-07T04:47:28;100524.31;;;23.89
65600;BMP280;52272;-29.642;-50.764;2022-12-07T04:49:58;100522.47;;;23.50
65600;BMP280;52272;-29.642;-50.764;2022-12-07T04:52:29;100525.03;;;23.35
65600;BMP280;52272;-29.642;-50.764;2022-12-07T04:54:58;100529.84;;;23.29
65600;BMP280;52272;-29.642;-50.764;2022-12-07T04:57:28;100516.34;;;23.50
65600;BMP280;52272;-29.642;-50.764;2022-12-07T04:59:58;100501.91;;;23.29
65600;BMP280;52272;-29.642;-50.764;2022-12-07T05:02:29;100513.53;;;23.29
65600;BMP280;52272;-29.642;-50.764;2022-12-07T05:05:00;100514.38;;;22.98
65600;BMP280;52272;-29.642;-50.764;2022-12-07T05:07:30;100517.94;;;22.93
65600;BMP280;52272;-29.642;-50.764;2022-12-07T05:10:00;100489.28;;;22.54
65600;BMP280;52272;-29.642;-50.764;2022-12-07T05:12:32;100520.50;;;22.60
65600;BMP280;52272;-29.642;-50.764;2022-12-07T05:15:02;100516.00;;;22.50
65600;BMP280;52272;-29.642;-50.764;2022-12-07T05:17:32;100525.75;;;22.71
65600;BMP280;52272;-29.642;-50.764;2022-12-07T05:20:02;100521.78;;;22.85
65600;BMP280;52272;-29.642;-50.764;2022-12-07T05:22:33;100523.81;;;22.85
65600;BMP280;52272;-29.642;-50.764;2022-12-07T05:25:04;100526.94;;;23.01
65600;BMP280;52272;-29.642;-50.764;2022-12-07T05:27:34;100533.19;;;23.22
65600;BMP280;52272;-29.642;-50.764;2022-12-07T05:30:04;100528.19;;;23.13
65600;BMP280;52272;-29.642;-50.764;2022-12-07T05:32:35;100528.81;;;23.06
65600;BMP280;52272;-29.642;-50.764;2022-12-07T05:35:05;100529.97;;;22.98
65600;BMP280;52272;-29.642;-50.764;2022-12-07T05:37:36;100522.94;;;23.02
65600;BMP280;52272;-29.642;-50.764;2022-12-07T05:40:09;100523.63;;;22.95
65600;BMP280;52272;-29.642;-50.764;2022-12-07T05:42:40;100519.63;;;22.96
65600;BMP280;52272;-29.642;-50.764;2022-12-07T05:45:11;100515.00;;;23.04
65600;BMP280;52272;-29.642;-50.764;2022-12-07T05:47:44;100506.66;;;23.15
65600;BMP280;52272;-29.642;-50.764;2022-12-07T05:50:14;100509.16;;;23.26
65600;BMP280;52272;-29.642;-50.764;2022-12-07T05:53:00;100508.75;;;22.96
65600;BMP280;52272;-29.642;-50.764;2022-12-07T05:55:30;100473.97;;;22.69
65600;BMP280;52272;-29.642;-50.764;2022-12-07T05:58:00;100495.38;;;22.98
65600;BMP280;52272;-29.642;-50.764;2022-12-07T06:00:48;100493.69;;;22.83
65600;BMP280;52272;-29.642;-50.764;2022-12-07T06:03:19;100509.38;;;22.89
65600;BMP280;52272;-29.642;-50.764;2022-12-07T06:05:49;100505.00;;;22.99
65600;BMP280;52272;-29.642;-50.764;2022-12-07T06:08:22;100503.81;;;23.08
65600;BMP280;52272;-29.642;-50.764;2022-12-07T06:10:51;100470.72;;;22.96
65600;BMP280;52272;-29.642;-50.764;2022-12-07T06:13:44;100505.19;;;23.01
65600;BMP280;52272;-29.642;-50.764;2022-12-07T06:16:14;100499.88;;;22.83
65600;BMP280;52272;-29.642;-50.764;2022-12-07T06:18:45;100498.81;;;22.86
65600;BMP280;52272;-29.642;-50.764;2022-12-07T06:21:15;100494.34;;;22.63
65600;BMP280;52272;-29.642;-50.764;2022-12-07T06:23:45;100487.50;;;22.56
65600;BMP280;52272;-29.642;-50.764;2022-12-07T06:26:15;100484.50;;;22.60
65600;BMP280;52272;-29.642;-50.764;2022-12-07T06:28:46;100487.63;;;22.89
65600;BMP280;52272;-29.642;-50.764;2022-12-07T06:31:16;100498.09;;;23.11
65600;BMP280;52272;-29.642;-50.764;2022-12-07T06:33:47;100501.84;;;23.21
65600;BMP280;52272;-29.642;-50.764;2022-12-07T06:36:17;100502.66;;;23.29
65600;BMP280;52272;-29.642;-50.764;2022-12-07T06:38:53;100500.34;;;23.33
65600;BMP280;52272;-29.642;-50.764;2022-12-07T06:41:24;100496.16;;;23.32
65600;BMP280;52272;-29.642;-50.764;2022-12-07T06:43:55;100495.50;;;23.39
65600;BMP280;52272;-29.642;-50.764;2022-12-07T06:46:25;100509.00;;;23.45
65600;BMP280;52272;-29.642;-50.764;2022-12-07T06:48:58;100505.91;;;23.28
65600;BMP280;52272;-29.642;-50.764;2022-12-07T06:51:29;100505.91;;;23.28
65600;BMP280;52272;-29.642;-50.764;2022-12-07T06:53:59;100502.25;;;23.25
65600;BMP280;52272;-29.642;-50.764;2022-12-07T06:56:30;100511.88;;;23.26
65600;BMP280;52272;-29.642;-50.764;2022-12-07T06:59:00;100507.03;;;23.32
65600;BMP280;52272;-29.642;-50.764;2022-12-07T07:01:30;100507.03;;;23.32
65600;BMP280;52272;-29.642;-50.764;2022-12-07T07:04:01;100505.78;;;23.33
65600;BMP280;52272;-29.642;-50.764;2022-12-07T07:06:32;100509.34;;;23.28
65600;BMP280;52272;-29.642;-50.764;2022-12-07T07:09:03;100503.50;;;23.11
65600;BMP280;52272;-29.642;-50.764;2022-12-07T07:11:35;100506.56;;;23.21
65600;BMP280;52272;-29.642;-50.764;2022-12-07T07:14:05;100501.22;;;23.02
65600;BMP280;52272;-29.642;-50.764;2022-12-07T07:16:36;100507.81;;;22.81
65600;BMP280;52272;-29.642;-50.764;2022-12-07T07:19:06;100505.09;;;22.68
65600;BMP280;52272;-29.642;-50.764;2022-12-07T07:21:37;100509.63;;;22.60
65600;BMP280;52272;-29.642;-50.764;2022-12-07T07:24:07;100502.84;;;22.54
65600;BMP280;52272;-29.642;-50.764;2022-12-07T07:26:38;100515.94;;;22.55
65600;BMP280;52272;-29.642;-50.764;2022-12-07T07:29:07;100507.25;;;22.44
65600;BMP280;52272;-29.642;-50.764;2022-12-07T07:31:37;100524.78;;;22.56
65600;BMP280;52272;-29.642;-50.764;2022-12-07T07:34:07;100527.19;;;22.46
65600;BMP280;52272;-29.642;-50.764;2022-12-07T07:36:37;100532.72;;;22.41
65600;BMP280;52272;-29.642;-50.764;2022-12-07T07:39:07;100524.16;;;22.18
65600;BMP280;52272;-29.642;-50.764;2022-12-07T07:41:38;100533.72;;;22.06
65600;BMP280;52272;-29.642;-50.764;2022-12-07T07:44:13;100537.69;;;21.87
65600;BMP280;52272;-29.642;-50.764;2022-12-07T07:46:44;100533.41;;;21.73
65600;BMP280;52272;-29.642;-50.764;2022-12-07T07:49:14;100537.03;;;21.81
65600;BMP280;52272;-29.642;-50.764;2022-12-07T07:51:44;100547.66;;;21.60
65600;BMP280;52272;-29.642;-50.764;2022-12-07T07:54:15;100541.56;;;21.54
65600;BMP280;52272;-29.642;-50.764;2022-12-07T07:56:45;100552.78;;;21.64
65600;BMP280;52272;-29.642;-50.764;2022-12-07T07:59:16;100547.66;;;21.79
65600;BMP280;52272;-29.642;-50.764;2022-12-07T08:01:46;100556.25;;;21.83
65600;BMP280;52272;-29.642;-50.764;2022-12-07T08:04:17;100556.91;;;21.89
65600;BMP280;52272;-29.642;-50.764;2022-12-07T08:06:47;100559.56;;;21.94
65600;BMP280;52272;-29.642;-50.764;2022-12-07T08:09:17;100572.28;;;21.99
65600;BMP280;52272;-29.642;-50.764;2022-12-07T08:11:48;100584.97;;;22.10
65600;BMP280;52272;-29.642;-50.764;2022-12-07T08:14:18;100584.78;;;22.39
65600;BMP280;52272;-29.642;-50.764;2022-12-07T08:16:49;100588.69;;;22.44
65600;BMP280;52272;-29.642;-50.764;2022-12-07T08:19:19;100584.75;;;22.08
65600;BMP280;52272;-29.642;-50.764;2022-12-07T08:21:49;100590.75;;;22.01
65600;BMP280;52272;-29.642;-50.764;2022-12-07T08:24:19;100582.41;;;22.17
65600;BMP280;52272;-29.642;-50.764;2022-12-07T08:26:50;100596.03;;;22.62
65600;BMP280;52272;-29.642;-50.764;2022-12-07T08:29:20;100595.25;;;22.92
65600;BMP280;52272;-29.642;-50.764;2022-12-07T08:31:50;100611.38;;;23.03
65600;BMP280;52272;-29.642;-50.764;2022-12-07T08:34:20;100594.03;;;23.06
65600;BMP280;52272;-29.642;-50.764;2022-12-07T08:36:51;100604.16;;;23.19
65600;BMP280;52272;-29.642;-50.764;2022-12-07T08:39:21;100574.78;;;22.91
65600;BMP280;52272;-29.642;-50.764;2022-12-07T08:41:59;100613.25;;;23.08
65600;BMP280;52272;-29.642;-50.764;2022-12-07T08:44:30;100610.31;;;23.06
65600;BMP280;52272;-29.642;-50.764;2022-12-07T08:47:04;100606.53;;;22.96
65600;BMP280;52272;-29.642;-50.764;2022-12-07T08:49:41;100588.94;;;22.59
65600;BMP280;52272;-29.642;-50.764;2022-12-07T08:52:13;100609.63;;;22.75
65600;BMP280;52272;-29.642;-50.764;2022-12-07T08:54:43;100611.94;;;22.83
65600;BMP280;52272;-29.642;-50.764;2022-12-07T08:57:14;100607.91;;;22.90
65600;BMP280;52272;-29.642;-50.764;2022-12-07T08:59:44;100607.28;;;22.84
65600;BMP280;52272;-29.642;-50.764;2022-12-07T09:02:15;100605.91;;;22.90
65600;BMP280;52272;-29.642;-50.764;2022-12-07T09:04:45;100600.47;;;22.78
65600;BMP280;52272;-29.642;-50.764;2022-12-07T09:07:14;100601.50;;;22.75
65600;BMP280;52272;-29.642;-50.764;2022-12-07T09:09:45;100603.50;;;23.00
65600;BMP280;52272;-29.642;-50.764;2022-12-07T09:12:15;100608.44;;;23.01
65600;BMP280;52272;-29.642;-50.764;2022-12-07T09:14:45;100606.56;;;23.22
65600;BMP280;52272;-29.642;-50.764;2022-12-07T09:17:18;100605.09;;;23.08
65600;BMP280;52272;-29.642;-50.764;2022-12-07T09:19:48;100621.66;;;23.10
65600;BMP280;52272;-29.642;-50.764;2022-12-07T09:22:18;100617.84;;;23.00
65600;BMP280;52272;-29.642;-50.764;2022-12-07T09:24:48;100616.69;;;23.22
65600;BMP280;52272;-29.642;-50.764;2022-12-07T09:27:19;100613.06;;;23.19
65600;BMP280;52272;-29.642;-50.764;2022-12-07T09:29:49;100617.31;;;23.15
65600;BMP280;52272;-29.642;-50.764;2022-12-07T09:32:20;100624.66;;;23.20
65600;BMP280;52272;-29.642;-50.764;2022-12-07T09:34:50;100616.94;;;23.24
65600;BMP280;52272;-29.642;-50.764;2022-12-07T09:37:21;100621.41;;;23.21
65600;BMP280;52272;-29.642;-50.764;2022-12-07T09:39:51;100627.28;;;23.25
65600;BMP280;52272;-29.642;-50.764;2022-12-07T09:42:37;100627.84;;;22.92
65600;BMP280;52272;-29.642;-50.764;2022-12-07T09:45:23;100634.06;;;23.19
65600;BMP280;52272;-29.642;-50.764;2022-12-07T09:47:54;100639.16;;;23.61
65600;BMP280;52272;-29.642;-50.764;2022-12-07T09:50:27;100655.22;;;24.11
65600;BMP280;52272;-29.642;-50.764;2022-12-07T09:53:13;100657.31;;;24.79
65600;BMP280;52272;-29.642;-50.764;2022-12-07T09:55:44;100638.88;;;24.93
65600;BMP280;52272;-29.642;-50.764;2022-12-07T09:58:25;100661.41;;;25.92
65600;BMP280;52272;-29.642;-50.764;2022-12-07T10:01:09;100658.75;;;26.29
65600;BMP280;52272;-29.642;-50.764;2022-12-07T10:03:48;100664.22;;;26.29
65600;BMP280;52272;-29.642;-50.764;2022-12-07T10:06:19;100664.97;;;26.37
65600;BMP280;52272;-29.642;-50.764;2022-12-07T10:08:50;100646.25;;;25.83
65600;BMP280;52272;-29.642;-50.764;2022-12-07T10:11:20;100667.44;;;26.05
65600;BMP280;52272;-29.642;-50.764;2022-12-07T10:13:54;100678.81;;;26.69
65600;BMP280;52272;-29.642;-50.764;2022-12-07T10:16:38;100686.28;;;27.52
65600;BMP280;52272;-29.642;-50.764;2022-12-07T10:22:14;100681.31;;;28.54
65600;BMP280;52272;-29.642;-50.764;2022-12-07T10:24:47;100695.34;;;28.75
65600;BMP280;52272;-29.642;-50.764;2022-12-07T10:27:21;100705.50;;;28.65
65600;BMP280;52272;-29.642;-50.764;2022-12-07T10:29:52;100711.03;;;29.16
65600;BMP280;52272;-29.642;-50.764;2022-12-07T10:32:36;100713.13;;;29.58
65600;BMP280;52272;-29.642;-50.764;2022-12-07T10:35:30;100719.94;;;29.93
65600;BMP280;52272;-29.642;-50.764;2022-12-07T10:38:00;100713.44;;;30.24
65600;BMP280;52272;-29.642;-50.764;2022-12-07T10:40:34;100721.34;;;30.47
65600;BMP280;52272;-29.642;-50.764;2022-12-07T10:45:57;100731.41;;;30.35
65600;BMP280;52272;-29.642;-50.764;2022-12-07T10:51:42;100727.81;;;29.36
65600;BMP280;52272;-29.642;-50.764;2022-12-07T10:56:56;100743.81;;;29.47
65600;BMP280;52272;-29.642;-50.764;2022-12-07T11:11:13;100732.50;;;30.13
65600;BMP280;52272;-29.642;-50.764;2022-12-07T11:13:48;100738.75;;;30.96
65600;BMP280;52272;-29.642;-50.764;2022-12-07T11:28:00;100746.13;;;32.60
65600;BMP280;52272;-29.642;-50.764;2022-12-07T11:36:45;100745.66;;;33.61
65600;BMP280;52272;-29.642;-50.764;2022-12-07T11:39:36;100748.19;;;33.91
65600;BMP280;52272;-29.642;-50.764;2022-12-07T11:42:14;100747.09;;;35.03
65600;BMP280;52272;-29.642;-50.764;2022-12-07T11:44:57;100750.00;;;36.37
65600;BMP280;52272;-29.642;-50.764;2022-12-07T11:53:31;100761.75;;;35.68
65600;BMP280;52272;-29.642;-50.764;2022-12-07T11:56:20;100747.56;;;34.38
65600;BMP280;52272;-29.642;-50.764;2022-12-07T11:59:00;100752.16;;;33.65
65600;BMP280;52272;-29.642;-50.764;2022-12-07T12:06:57;100755.28;;;33.16
65600;BMP280;52272;-29.642;-50.764;2022-12-07T12:09:56;100749.47;;;33.44
65600;BMP280;52272;-29.642;-50.764;2022-12-07T12:12:38;100747.38;;;32.69
65600;BMP280;52272;-29.642;-50.764;2022-12-07T12:21:17;100759.94;;;31.41
65600;BMP280;52272;-29.642;-50.764;2022-12-07T12:24:12;100740.66;;;30.94
65600;BMP280;52272;-29.642;-50.764;2022-12-07T12:26:53;100756.44;;;31.50
65600;BMP280;52272;-29.642;-50.764;2022-12-07T12:29:33;100755.75;;;31.12
65600;BMP280;52272;-29.642;-50.764;2022-12-07T12:32:13;100768.72;;;31.77
65600;BMP280;52272;-29.642;-50.764;2022-12-07T12:42:52;100748.03;;;32.79
65600;BMP280;52272;-29.642;-50.764;2022-12-07T12:45:26;100748.06;;;33.11
65600;BMP280;52272;-29.642;-50.764;2022-12-07T12:54:10;100743.59;;;33.50
65600;BMP280;52272;-29.642;-50.764;2022-12-07T12:56:51;100744.59;;;33.66
65600;BMP280;52272;-29.642;-50.764;2022-12-07T13:15:55;100727.53;;;32.40
65600;BMP280;52272;-29.642;-50.764;2022-12-07T13:18:44;100717.91;;;33.82
65600;BMP280;52272;-29.642;-50.764;2022-12-07T13:24:07;100711.53;;;34.61
65600;BMP280;52272;-29.642;-50.764;2022-12-07T13:26:43;100717.50;;;34.69
65600;BMP280;52272;-29.642;-50.764;2022-12-07T13:29:17;100717.47;;;34.81
65600;BMP280;52272;-29.642;-50.764;2022-12-07T13:31:52;100722.03;;;34.76
65600;BMP280;52272;-29.642;-50.764;2022-12-07T13:34:30;100716.66;;;34.42
65600;BMP280;52272;-29.642;-50.764;2022-12-07T13:37:08;100709.97;;;35.46
65600;BMP280;52272;-29.642;-50.764;2022-12-07T13:39:51;100704.75;;;35.65
65600;BMP280;52272;-29.642;-50.764;2022-12-07T13:42:28;100714.53;;;35.28
65600;BMP280;52272;-29.642;-50.764;2022-12-07T13:45:00;100703.13;;;34.84
65600;BMP280;52272;-29.642;-50.764;2022-12-07T13:47:41;100694.34;;;35.26
65600;BMP280;52272;-29.642;-50.764;2022-12-07T13:50:24;100707.41;;;35.90
65600;BMP280;52272;-29.642;-50.764;2022-12-07T13:52:57;100700.88;;;37.14
65600;BMP280;52272;-29.642;-50.764;2022-12-07T13:55:30;100700.66;;;37.72
65600;BMP280;52272;-29.642;-50.764;2022-12-07T13:58:01;100703.03;;;38.30
65600;BMP280;52272;-29.642;-50.764;2022-12-07T14:00:31;100693.69;;;37.71
65600;BMP280;52272;-29.642;-50.764;2022-12-07T14:03:29;100696.78;;;37.00
65600;BMP280;52272;-29.642;-50.764;2022-12-07T14:06:27;100702.56;;;36.46
65600;BMP280;52272;-29.642;-50.764;2022-12-07T14:09:30;100692.88;;;34.87
65600;BMP280;52272;-29.642;-50.764;2022-12-07T14:12:05;100695.69;;;35.38
65600;BMP280;52272;-29.642;-50.764;2022-12-07T14:14:37;100702.84;;;36.97
65600;BMP280;52272;-29.642;-50.764;2022-12-07T14:17:19;100705.78;;;36.41
65600;BMP280;52272;-29.642;-50.764;2022-12-07T14:19:58;100699.91;;;35.39
65600;BMP280;52272;-29.642;-50.764;2022-12-07T14:22:37;100694.59;;;33.62
65600;BMP280;52272;-29.642;-50.764;2022-12-07T14:30:19;100680.31;;;34.36
65600;BMP280;52272;-29.642;-50.764;2022-12-07T14:33:01;100681.28;;;34.65
65600;BMP280;52272;-29.642;-50.764;2022-12-07T14:35:32;100684.00;;;35.40
65600;BMP280;52272;-29.642;-50.764;2022-12-07T14:38:02;100685.34;;;35.52
65600;BMP280;52272;-29.642;-50.764;2022-12-07T14:40:32;100683.69;;;36.43
65600;BMP280;52272;-29.642;-50.764;2022-12-07T14:43:08;100679.38;;;36.99
65600;BMP280;52272;-29.642;-50.764;2022-12-07T14:45:38;100671.31;;;37.05
65600;BMP280;52272;-29.642;-50.764;2022-12-07T14:48:12;100666.81;;;37.60
65600;BMP280;52272;-29.642;-50.764;2022-12-07T14:51:04;100674.47;;;37.94
65600;BMP280;52272;-29.642;-50.764;2022-12-07T14:53:54;100667.28;;;37.39
65600;BMP280;52272;-29.642;-50.764;2022-12-07T14:56:25;100670.22;;;37.43
65600;BMP280;52272;-29.642;-50.764;2022-12-07T14:58:58;100667.81;;;38.19
65600;BMP280;52272;-29.642;-50.764;2022-12-07T15:01:29;100660.53;;;37.44
65600;BMP280;52272;-29.642;-50.764;2022-12-07T15:03:59;100661.75;;;38.41
65600;BMP280;52272;-29.642;-50.764;2022-12-07T15:06:30;100671.19;;;38.69
65600;BMP280;52272;-29.642;-50.764;2022-12-07T15:09:01;100655.66;;;38.10
65600;BMP280;52272;-29.642;-50.764;2022-12-07T15:11:31;100661.44;;;37.99
65600;BMP280;52272;-29.642;-50.764;2022-12-07T15:14:01;100659.97;;;39.45
65600;BMP280;52272;-29.642;-50.764;2022-12-07T15:16:40;100656.72;;;39.31
65600;BMP280;52272;-29.642;-50.764;2022-12-07T15:19:31;100658.75;;;40.60
65600;BMP280;52272;-29.642;-50.764;2022-12-07T15:22:01;100632.59;;;41.00
65600;BMP280;52272;-29.642;-50.764;2022-12-07T15:24:33;100647.66;;;40.64
65600;BMP280;52272;-29.642;-50.764;2022-12-07T15:27:03;100645.41;;;38.69
65600;BMP280;52272;-29.642;-50.764;2022-12-07T15:29:34;100639.84;;;39.27
65600;BMP280;52272;-29.642;-50.764;2022-12-07T15:32:04;100643.41;;;39.51
65600;BMP280;52272;-29.642;-50.764;2022-12-07T15:34:35;100633.75;;;39.32
65600;BMP280;52272;-29.642;-50.764;2022-12-07T15:37:08;100640.28;;;38.27
65600;BMP280;52272;-29.642;-50.764;2022-12-07T15:39:38;100634.91;;;39.06
65600;BMP280;52272;-29.642;-50.764;2022-12-07T15:42:08;100636.91;;;39.63
65600;BMP280;52272;-29.642;-50.764;2022-12-07T15:44:39;100614.41;;;40.25
65600;BMP280;52272;-29.642;-50.764;2022-12-07T15:47:27;100601.63;;;38.71
65600;BMP280;52272;-29.642;-50.764;2022-12-07T15:49:57;100618.72;;;37.09
65600;BMP280;52272;-29.642;-50.764;2022-12-07T15:52:28;100622.56;;;36.72
65600;BMP280;52272;-29.642;-50.764;2022-12-07T15:55:01;100606.03;;;37.37
65600;BMP280;52272;-29.642;-50.764;2022-12-07T15:57:35;100585.13;;;36.13
65600;BMP280;52272;-29.642;-50.764;2022-12-07T16:00:08;100604.13;;;36.94
65600;BMP280;52272;-29.642;-50.764;2022-12-07T16:02:38;100601.44;;;37.94
65600;BMP280;52272;-29.642;-50.764;2022-12-07T16:05:09;100593.19;;;38.89